Time;durP1;ratioP1;P1;durP2;ratioP2;P2;SDS_P1;SDS_P2;PMS_P1;PMS_P2;Temp;Humidity;BMP_temperature;BMP_pressure;BME280_temperature;BME280_humidity;BME280_pressure;Samples;Min_cycle;Max_cycle;Signal;HPM_P1;HPM_P2
2022/05/20 00:01:38;;;;;;;;;;;19.60;84.60;;;;;;5024873;28;19999;-66
2022/05/20 00:04:04;;;;;;;;;;;19.50;84.50;;;;;;5028623;28;19917;-65
2022/05/20 00:06:29;;;;;;;;;;;19.50;84.70;;;;;;5027397;28;20330;-66
2022/05/20 00:08:55;;;;;;;;;;;19.50;85.00;;;;;;5028392;28;19910;-65
2022/05/20 00:11:20;;;;;;;;;;;19.40;85.00;;;;;;5030048;28;20251;-66
2022/05/20 00:13:46;;;;;;;;;;;19.40;85.00;;;;;;5026754;28;20036;-66
2022/05/20 00:16:12;;;;;;;;;;;19.40;85.10;;;;;;5026650;28;20408;-66
2022/05/20 00:18:38;;;;;;;;;;;19.40;85.20;;;;;;5026180;28;19913;-65
2022/05/20 00:21:03;;;;;;;;;;;19.40;85.30;;;;;;5028804;28;19909;-66
2022/05/20 00:23:29;;;;;;;;;;;19.40;85.20;;;;;;5028874;28;19909;-65
2022/05/20 00:25:54;;;;;;;;;;;19.40;85.30;;;;;;5025979;28;19983;-65
2022/05/20 00:28:27;;;;;;;;;;;19.40;85.30;;;;;;5032287;28;20387;-65
2022/05/20 00:30:55;;;;;;;;;;;19.40;85.40;;;;;;5020031;28;19968;-66
2022/05/20 00:33:21;;;;;;;;;;;19.40;85.30;;;;;;5026023;28;20016;-66
2022/05/20 00:35:47;;;;;;;;;;;19.40;85.40;;;;;;5030508;28;19963;-66
2022/05/20 00:38:13;;;;;;;;;;;19.30;85.40;;;;;;5025983;28;19913;-65
2022/05/20 00:40:38;;;;;;;;;;;19.30;85.20;;;;;;5027467;28;19917;-66
2022/05/20 00:43:08;;;;;;;;;;;19.30;85.20;;;;;;5026023;28;19917;-65
2022/05/20 00:45:34;;;;;;;;;;;19.30;85.10;;;;;;5026393;28;19928;-65
2022/05/20 00:48:00;;;;;;;;;;;19.30;85.00;;;;;;5028762;28;20008;-63
2022/05/20 00:50:25;;;;;;;;;;;19.30;84.90;;;;;;5030148;28;19918;-64
2022/05/20 00:52:51;;;;;;;;;;;19.20;84.80;;;;;;5031177;28;19917;-66
2022/05/20 00:55:17;;;;;;;;;;;19.20;84.80;;;;;;5042215;28;19952;-66
2022/05/20 00:57:46;;;;;;;;;;;19.20;84.80;;;;;;5042699;28;19987;-66
2022/05/20 01:00:15;;;;;;;;;;;19.20;84.80;;;;;;5042756;28;19964;-66
2022/05/20 01:02:41;;;;;;;;;;;19.20;84.80;;;;;;5030663;28;19909;-66
2022/05/20 01:05:17;;;;;;;;;;;19.20;84.70;;;;;;5026492;28;19909;-66
2022/05/20 01:07:43;;;;;;;;;;;19.20;84.50;;;;;;5028957;28;19967;-66
2022/05/20 01:10:08;;;;;;;;;;;19.20;84.40;;;;;;5028507;28;19917;-67
2022/05/20 01:12:34;;;;;;;;;;;19.20;84.40;;;;;;5027549;28;19921;-67
2022/05/20 01:15:00;;;;;;;;;;;19.30;84.40;;;;;;5028755;28;19935;-66
2022/05/20 01:17:26;;;;;;;;;;;19.30;84.30;;;;;;5028864;28;20059;-65
2022/05/20 01:19:53;;;;;;;;;;;19.20;84.10;;;;;;5029365;28;19913;-66
2022/05/20 01:22:37;;;;;;;;;;;19.20;84.10;;;;;;5027023;28;19920;-66
2022/05/20 01:25:03;;;;;;;;;;;19.20;84.30;;;;;;5022480;28;20416;-67
2022/05/20 01:27:29;;;;;;;;;;;19.20;83.80;;;;;;5029378;28;19920;-65
2022/05/20 01:29:54;;;;;;;;;;;19.20;83.80;;;;;;5032978;28;19913;-66
2022/05/20 01:32:20;;;;;;;;;;;19.20;83.80;;;;;;5030587;28;19913;-66
2022/05/20 01:34:45;;;;;;;;;;;19.10;83.70;;;;;;5029436;28;19932;-66
2022/05/20 01:37:11;;;;;;;;;;;19.10;83.80;;;;;;5029285;28;19956;-66
2022/05/20 01:39:37;;;;;;;;;;;19.10;83.80;;;;;;5031071;28;19992;-67
2022/05/20 01:42:13;;;;;;;;;;;19.10;83.70;;;;;;5048290;28;19912;-68
2022/05/20 01:44:59;;;;;;;;;;;19.00;83.50;;;;;;5033183;28;19917;-66
2022/05/20 01:47:37;;;;;;;;;;;19.00;83.70;;;;;;5030564;28;19917;-65
2022/05/20 01:50:12;;;;;;;;;;;19.00;83.80;;;;;;5030482;28;19921;-66
2022/05/20 01:52:42;;;;;;;;;;;19.00;83.80;;;;;;5031862;28;19928;-65
2022/05/20 01:55:13;;;;;;;;;;;19.00;83.80;;;;;;5029159;28;19917;-66
2022/05/20 01:57:46;;;;;;;;;;;19.00;83.90;;;;;;5030495;28;19913;-66
2022/05/20 02:00:14;;;;;;;;;;;19.00;83.70;;;;;;5032809;28;20036;-66
2022/05/20 02:02:57;;;;;;;;;;;19.00;83.80;;;;;;5033567;28;19909;-66
2022/05/20 02:05:43;;;;;;;;;;;19.00;84.00;;;;;;5030000;28;19920;-66
2022/05/20 02:08:17;;;;;;;;;;;18.90;83.80;;;;;;5029517;28;19932;-65
2022/05/20 02:11:15;;;;;;;;;;;18.90;84.00;;;;;;5028400;28;19920;-65
2022/05/20 02:13:43;;;;;;;;;;;18.90;84.20;;;;;;5010260;28;19921;-66
2022/05/20 02:16:12;;;;;;;;;;;18.90;84.30;;;;;;5010216;28;19917;-63
2022/05/20 02:18:43;;;;;;;;;;;18.90;84.30;;;;;;5009702;28;19940;-66
2022/05/20 02:21:11;;;;;;;;;;;18.90;84.30;;;;;;5010035;28;19921;-66
2022/05/20 02:23:40;;;;;;;;;;;18.90;84.30;;;;;;5010525;28;19952;-66
2022/05/20 02:26:08;;;;;;;;;;;18.90;84.40;;;;;;5009996;28;19913;-65
2022/05/20 02:28:35;;;;;;;;;;;18.90;84.90;;;;;;5010115;28;19913;-65
2022/05/20 02:31:02;;;;;;;;;;;18.90;84.50;;;;;;5009659;28;19913;-64
2022/05/20 02:33:28;;;;;;;;;;;18.90;84.70;;;;;;5009288;28;20305;-65
2022/05/20 02:36:06;;;;;;;;;;;18.90;84.80;;;;;;5009648;28;19914;-65
2022/05/20 02:38:32;;;;;;;;;;;18.90;84.80;;;;;;5010321;28;20140;-65
2022/05/20 02:40:57;;;;;;;;;;;18.90;84.90;;;;;;5017818;28;20238;-66
2022/05/20 02:43:23;;;;;;;;;;;18.90;85.00;;;;;;5016286;28;19914;-63
2022/05/20 02:45:50;;;;;;;;;;;18.90;85.20;;;;;;5010602;28;19921;-63
2022/05/20 02:48:17;;;;;;;;;;;18.90;85.30;;;;;;5027752;28;19943;-65
2022/05/20 02:50:42;;;;;;;;;;;18.80;85.40;;;;;;5051530;28;19908;-64
2022/05/20 02:53:08;;;;;;;;;;;18.90;85.50;;;;;;5027884;28;19929;-66
2022/05/20 02:55:33;;;;;;;;;;;18.90;85.50;;;;;;5031509;28;19913;-64
2022/05/20 02:57:59;;;;;;;;;;;18.90;85.60;;;;;;5029017;28;19932;-64
2022/05/20 03:06:01;;;;;;;;;;;18.90;85.70;;;;;;5010633;28;20044;-65
2022/05/20 03:08:26;;;;;;;;;;;18.90;85.60;;;;;;5010537;28;20371;-63
2022/05/20 03:10:52;;;;;;;;;;;18.90;85.60;;;;;;5013285;28;19920;-64
2022/05/20 03:13:17;;;;;;;;;;;18.90;85.80;;;;;;5012186;28;20343;-66
2022/05/20 03:15:43;;;;;;;;;;;18.80;85.90;;;;;;5011734;28;19951;-65
2022/05/20 03:18:10;;;;;;;;;;;18.80;85.90;;;;;;5010919;28;20017;-65
2022/05/20 03:20:37;;;;;;;;;;;18.80;86.00;;;;;;5010612;28;19921;-64
2022/05/20 03:23:02;;;;;;;;;;;18.80;86.20;;;;;;5012519;28;20343;-64
2022/05/20 03:25:28;;;;;;;;;;;18.80;86.20;;;;;;5011627;28;20421;-62
2022/05/20 03:27:53;;;;;;;;;;;18.80;86.40;;;;;;5012413;28;19913;-65
2022/05/20 03:30:19;;;;;;;;;;;18.80;86.60;;;;;;5011634;28;19917;-65
2022/05/20 03:32:45;;;;;;;;;;;18.80;86.60;;;;;;5009465;28;20519;-65
2022/05/20 03:35:11;;;;;;;;;;;18.70;86.80;;;;;;5011426;28;19917;-66
2022/05/20 03:37:36;;;;;;;;;;;18.80;86.90;;;;;;5012034;28;19918;-64
2022/05/20 03:40:02;;;;;;;;;;;18.80;87.00;;;;;;5016083;28;20325;-67
2022/05/20 03:42:28;;;;;;;;;;;18.80;86.90;;;;;;5030376;28;19920;-66
2022/05/20 03:44:53;;;;;;;;;;;18.70;86.80;;;;;;5030412;28;19909;-67
2022/05/20 03:47:19;;;;;;;;;;;18.70;87.00;;;;;;5031301;28;20273;-66
2022/05/20 03:49:46;;;;;;;;;;;18.70;87.10;;;;;;5027820;28;20000;-67
2022/05/20 03:52:12;;;;;;;;;;;18.70;87.20;;;;;;5026258;28;19917;-65
2022/05/20 03:54:38;;;;;;;;;;;18.70;87.40;;;;;;5030345;28;19917;-66
2022/05/20 03:57:04;;;;;;;;;;;18.70;87.40;;;;;;5028465;28;19916;-65
2022/05/20 03:59:33;;;;;;;;;;;18.60;87.70;;;;;;5047221;28;19917;-67
2022/05/20 04:01:59;;;;;;;;;;;18.60;87.50;;;;;;5032126;28;20452;-67
2022/05/20 04:04:26;;;;;;;;;;;18.60;87.60;;;;;;5026728;28;19917;-66
2022/05/20 04:06:51;;;;;;;;;;;18.70;87.80;;;;;;5028364;28;19979;-67
2022/05/20 04:09:17;;;;;;;;;;;18.60;87.80;;;;;;5030547;28;19921;-65
2022/05/20 04:11:43;;;;;;;;;;;18.60;87.90;;;;;;5031219;28;19915;-66
2022/05/20 04:14:09;;;;;;;;;;;18.60;87.80;;;;;;5027333;28;19925;-66
2022/05/20 04:16:34;;;;;;;;;;;18.60;88.10;;;;;;5032153;28;19912;-65
2022/05/20 04:19:00;;;;;;;;;;;18.60;88.10;;;;;;5039108;28;20301;-66
2022/05/20 04:21:25;;;;;;;;;;;18.60;88.10;;;;;;5027178;28;19917;-66
2022/05/20 04:23:51;;;;;;;;;;;18.60;88.40;;;;;;5034306;28;19916;-67
2022/05/20 04:26:16;;;;;;;;;;;18.60;88.50;;;;;;5030787;28;19909;-68
2022/05/20 04:28:42;;;;;;;;;;;18.60;88.60;;;;;;5029903;28;19921;-67
2022/05/20 04:31:08;;;;;;;;;;;18.60;88.70;;;;;;5026904;28;19921;-67
2022/05/20 04:33:34;;;;;;;;;;;18.60;88.80;;;;;;5026950;28;20005;-67
2022/05/20 04:35:59;;;;;;;;;;;18.70;88.70;;;;;;5030911;28;20005;-67
2022/05/20 04:38:25;;;;;;;;;;;18.70;88.90;;;;;;5030731;28;20175;-67
2022/05/20 04:49:06;;;;;;;;;;;18.90;88.90;;;;;;5026118;28;20006;-67
2022/05/20 04:51:32;;;;;;;;;;;18.90;88.90;;;;;;5029630;28;19913;-67
2022/05/20 04:56:41;;;;;;;;;;;19.00;88.90;;;;;;5031198;28;20281;-67
2022/05/20 04:59:07;;;;;;;;;;;19.00;88.90;;;;;;5029603;28;19913;-67
2022/05/20 05:01:32;;;;;;;;;;;19.10;88.90;;;;;;5032953;28;20382;-67
2022/05/20 05:03:58;;;;;;;;;;;19.10;89.00;;;;;;5033369;28;19916;-68
2022/05/20 05:06:23;;;;;;;;;;;19.10;89.10;;;;;;5033336;28;20356;-68
2022/05/20 05:08:49;;;;;;;;;;;19.10;89.10;;;;;;5034588;28;19913;-67
2022/05/20 05:11:14;;;;;;;;;;;19.20;89.40;;;;;;5029591;28;19920;-67
2022/05/20 05:13:40;;;;;;;;;;;19.20;89.30;;;;;;5029273;28;19921;-67
2022/05/20 05:16:06;;;;;;;;;;;19.20;89.30;;;;;;5030898;28;19917;-66
2022/05/20 05:18:32;;;;;;;;;;;19.20;89.60;;;;;;5033682;28;20698;-69
2022/05/20 05:20:59;;;;;;;;;;;19.20;89.50;;;;;;5045715;28;19909;-70
2022/05/20 05:23:24;;;;;;;;;;;19.20;89.70;;;;;;5031384;28;19909;-69
2022/05/20 05:25:50;;;;;;;;;;;19.20;89.60;;;;;;5031947;28;19920;-68
2022/05/20 05:28:16;;;;;;;;;;;19.20;89.70;;;;;;5026287;28;20016;-68
2022/05/20 05:30:44;;;;;;;;;;;19.20;90.00;;;;;;5029055;28;19929;-67
2022/05/20 05:33:10;;;;;;;;;;;19.10;89.80;;;;;;5031064;28;19924;-67
2022/05/20 05:35:35;;;;;;;;;;;19.10;90.00;;;;;;5033764;28;19913;-67
2022/05/20 05:38:01;;;;;;;;;;;19.10;90.10;;;;;;5028782;28;19913;-68
2022/05/20 05:40:28;;;;;;;;;;;19.10;90.10;;;;;;5030771;28;20378;-68
2022/05/20 05:42:58;;;;;;;;;;;19.10;90.10;;;;;;5029790;28;19913;-68
2022/05/20 05:45:25;;;;;;;;;;;19.10;90.10;;;;;;5032075;28;20018;-68
2022/05/20 05:47:53;;;;;;;;;;;19.00;90.10;;;;;;5034030;28;19909;-68
2022/05/20 05:50:20;;;;;;;;;;;19.00;90.10;;;;;;5045542;28;19979;-68
2022/05/20 05:52:45;;;;;;;;;;;19.00;90.10;;;;;;5041123;28;19928;-68
2022/05/20 05:55:11;;;;;;;;;;;19.00;90.20;;;;;;5037041;28;19913;-67
2022/05/20 05:57:36;;;;;;;;;;;19.00;90.40;;;;;;5029114;28;20000;-68
2022/05/20 06:00:03;;;;;;;;;;;18.90;90.60;;;;;;5031489;28;20015;-68
2022/05/20 06:02:28;;;;;;;;;;;18.90;90.60;;;;;;5031495;28;19921;-67
2022/05/20 06:04:54;;;;;;;;;;;18.90;91.00;;;;;;5028002;28;19909;-68
2022/05/20 06:07:19;;;;;;;;;;;18.90;91.50;;;;;;5032748;28;20007;-67
2022/05/20 06:09:45;;;;;;;;;;;18.90;92.30;;;;;;5031778;28;19924;-66
2022/05/20 06:12:12;;;;;;;;;;;19.00;92.50;;;;;;5035915;28;19995;-66
2022/05/20 06:14:38;;;;;;;;;;;19.00;93.00;;;;;;5038797;28;20290;-62
2022/05/20 06:17:04;;;;;;;;;;;19.00;93.30;;;;;;5033962;28;19919;-61
2022/05/20 06:19:29;;;;;;;;;;;19.00;93.20;;;;;;5042893;28;20392;-61
2022/05/20 06:21:55;;;;;;;;;;;19.00;93.80;;;;;;5037049;28;19976;-63
2022/05/20 06:24:20;;;;;;;;;;;19.00;94.20;;;;;;5041884;28;19917;-61
2022/05/20 06:26:46;;;;;;;;;;;19.00;94.40;;;;;;5035287;28;19963;-61
2022/05/20 06:29:12;;;;;;;;;;;19.00;94.70;;;;;;5032884;28;19921;-61
2022/05/20 06:31:37;;;;;;;;;;;18.90;95.10;;;;;;5033099;28;19913;-62
2022/05/20 06:34:03;;;;;;;;;;;18.90;95.30;;;;;;5033648;28;20012;-62
2022/05/20 06:42:07;;;;;;;;;;;18.90;96.20;;;;;;5010808;28;19952;-60
2022/05/20 06:44:33;;;;;;;;;;;18.80;96.20;;;;;;5010212;28;19910;-64
2022/05/20 06:46:59;;;;;;;;;;;18.80;96.50;;;;;;5011685;28;19925;-65
2022/05/20 06:49:24;;;;;;;;;;;18.80;96.60;;;;;;5003422;28;19940;-65
2022/05/20 06:51:54;;;;;;;;;;;18.80;96.80;;;;;;5005715;28;20417;-66
2022/05/20 06:54:20;;;;;;;;;;;18.80;96.90;;;;;;5002348;28;19921;-62
2022/05/20 06:56:46;;;;;;;;;;;18.80;97.50;;;;;;5001263;28;19924;-64
2022/05/20 06:59:11;;;;;;;;;;;18.80;97.80;;;;;;5004005;28;20048;-62
2022/05/20 07:01:37;;;;;;;;;;;18.80;98.00;;;;;;5006836;28;19979;-63
2022/05/20 07:04:03;;;;;;;;;;;18.80;98.20;;;;;;5002636;28;19914;-63
2022/05/20 07:06:30;;;;;;;;;;;18.80;98.40;;;;;;5003300;28;20377;-63
2022/05/20 07:08:56;;;;;;;;;;;18.90;98.20;;;;;;4999870;28;19922;-65
2022/05/20 07:11:22;;;;;;;;;;;18.90;98.30;;;;;;5002588;28;20036;-64
2022/05/20 07:13:49;;;;;;;;;;;19.00;98.50;;;;;;5003851;28;19925;-63
2022/05/20 07:16:14;;;;;;;;;;;19.00;98.60;;;;;;5013595;28;19921;-65
2022/05/20 07:18:40;;;;;;;;;;;19.00;98.70;;;;;;5022394;28;20298;-65
2022/05/20 07:21:06;;;;;;;;;;;19.10;98.80;;;;;;5023548;28;19921;-64
2022/05/20 07:23:32;;;;;;;;;;;19.20;98.90;;;;;;5029133;28;19949;-63
2022/05/20 07:25:58;;;;;;;;;;;19.30;99.00;;;;;;5026976;28;19914;-64
2022/05/20 07:28:24;;;;;;;;;;;19.40;99.10;;;;;;5025536;28;19987;-64
2022/05/20 07:30:50;;;;;;;;;;;19.30;99.10;;;;;;5023038;28;19913;-64
2022/05/20 07:33:15;;;;;;;;;;;19.40;99.90;;;;;;5023285;28;19921;-65
2022/05/20 07:35:41;;;;;;;;;;;19.40;99.60;;;;;;5023228;28;19919;-63
2022/05/20 07:38:07;;;;;;;;;;;19.50;99.70;;;;;;5022825;28;20004;-64
2022/05/20 07:40:33;;;;;;;;;;;19.60;99.90;;;;;;5026024;28;20310;-64
2022/05/20 07:42:58;;;;;;;;;;;19.60;99.90;;;;;;5028231;28;19913;-64
2022/05/20 07:45:24;;;;;;;;;;;19.70;99.90;;;;;;5021700;28;19920;-61
2022/05/20 07:47:50;;;;;;;;;;;19.70;99.90;;;;;;5026619;28;20380;-64
2022/05/20 07:50:16;;;;;;;;;;;19.70;99.90;;;;;;5027830;28;19935;-62
2022/05/20 07:55:29;;;;;;;;;;;19.60;99.90;;;;;;5025806;28;19920;-64
2022/05/20 07:57:55;;;;;;;;;;;19.60;99.90;;;;;;5025414;28;19941;-66
2022/05/20 08:00:21;;;;;;;;;;;19.50;99.90;;;;;;5022582;28;19913;-64
2022/05/20 08:02:47;;;;;;;;;;;19.50;99.90;;;;;;5021155;28;19972;-66
2022/05/20 08:05:13;;;;;;;;;;;19.50;99.90;;;;;;5026236;28;20306;-64
2022/05/20 08:07:42;;;;;;;;;;;19.50;99.90;;;;;;5025872;28;19917;-66
2022/05/20 08:10:09;;;;;;;;;;;19.50;99.90;;;;;;5022631;28;19933;-65
2022/05/20 08:12:35;;;;;;;;;;;19.40;99.90;;;;;;5022454;28;20281;-63
2022/05/20 08:15:00;;;;;;;;;;;19.40;99.90;;;;;;5021977;28;19914;-63
2022/05/20 08:17:26;;;;;;;;;;;19.30;99.90;;;;;;5027521;28;20382;-63
2022/05/20 08:19:52;;;;;;;;;;;19.40;99.90;;;;;;5022088;28;20012;-65
2022/05/20 08:22:22;;;;;;;;;;;19.30;99.90;;;;;;5020446;28;19920;-65
2022/05/20 08:24:54;;;;;;;;;;;19.40;99.90;;;;;;5030967;28;19913;-63
2022/05/20 08:27:20;;;;;;;;;;;19.30;99.90;;;;;;5016997;28;19971;-64
2022/05/20 08:29:45;;;;;;;;;;;19.30;99.90;;;;;;5021041;28;19925;-65
2022/05/20 08:32:11;;;;;;;;;;;19.20;99.90;;;;;;5024521;28;20007;-65
2022/05/20 08:34:36;;;;;;;;;;;19.20;99.90;;;;;;5024752;28;20004;-66
2022/05/20 08:37:02;;;;;;;;;;;19.20;99.90;;;;;;5024038;28;19917;-66
2022/05/20 08:39:27;;;;;;;;;;;19.20;99.90;;;;;;5016000;28;20341;-62
2022/05/20 08:41:53;;;;;;;;;;;19.20;99.90;;;;;;5027209;28;20038;-65
2022/05/20 08:44:20;;;;;;;;;;;19.20;99.90;;;;;;5026051;28;19917;-64
2022/05/20 08:46:47;;;;;;;;;;;19.20;99.90;;;;;;5028355;28;19917;-64
2022/05/20 08:49:15;;;;;;;;;;;19.30;99.90;;;;;;5022720;28;19925;-62
2022/05/20 08:51:41;;;;;;;;;;;19.30;99.90;;;;;;5025240;28;19913;-64
2022/05/20 08:54:08;;;;;;;;;;;19.30;99.90;;;;;;5021963;28;19965;-64
2022/05/20 08:56:36;;;;;;;;;;;19.40;99.90;;;;;;5024160;28;20453;-65
2022/05/20 08:59:03;;;;;;;;;;;19.40;99.90;;;;;;5024677;28;19913;-66
2022/05/20 09:01:30;;;;;;;;;;;19.40;99.90;;;;;;5021750;28;19939;-61
2022/05/20 09:03:55;;;;;;;;;;;19.40;99.90;;;;;;5022963;28;19913;-67
2022/05/20 09:06:22;;;;;;;;;;;19.50;99.90;;;;;;5022185;28;20340;-65
2022/05/20 09:09:07;;;;;;;;;;;19.60;99.90;;;;;;5028785;28;20005;-64
2022/05/20 09:11:33;;;;;;;;;;;19.60;99.90;;;;;;5019149;28;19952;-64
2022/05/20 09:16:55;;;;;;;;;;;19.70;99.90;;;;;;5021779;28;20007;-65
2022/05/20 09:19:27;;;;;;;;;;;19.80;99.90;;;;;;5021044;28;19918;-66
2022/05/20 09:22:04;;;;;;;;;;;19.90;99.90;;;;;;5017911;28;20001;-65
2022/05/20 09:24:35;;;;;;;;;;;20.00;99.90;;;;;;5022163;28;19991;-66
2022/05/20 09:27:03;;;;;;;;;;;20.10;99.90;;;;;;5022216;28;19913;-65
2022/05/20 09:29:48;;;;;;;;;;;20.20;99.90;;;;;;5018170;28;20289;-58
2022/05/20 09:32:33;;;;;;;;;;;20.30;99.90;;;;;;5019815;28;19920;-64
2022/05/20 09:35:02;;;;;;;;;;;20.30;99.90;;;;;;5027461;28;19921;-61
2022/05/20 09:37:29;;;;;;;;;;;20.40;99.90;;;;;;5036780;28;19916;-60
2022/05/20 09:39:54;;;;;;;;;;;20.40;99.90;;;;;;5044014;28;19920;-62
2022/05/20 09:42:22;;;;;;;;;;;20.40;99.90;;;;;;5034278;28;19914;-57
2022/05/20 09:44:49;;;;;;;;;;;20.40;99.90;;;;;;5028787;28;20004;-59
2022/05/20 09:47:20;;;;;;;;;;;20.30;99.90;;;;;;5043302;28;19916;-59
2022/05/20 09:49:52;;;;;;;;;;;20.30;99.90;;;;;;5046183;28;19921;-58
2022/05/20 09:52:18;;;;;;;;;;;20.30;99.90;;;;;;5037694;28;19913;-58
2022/05/20 09:54:46;;;;;;;;;;;20.30;99.90;;;;;;5033800;28;19921;-58
2022/05/20 09:57:12;;;;;;;;;;;20.40;99.90;;;;;;5048698;28;19941;-58
2022/05/20 09:59:46;;;;;;;;;;;20.50;99.90;;;;;;5049889;28;19909;-58
2022/05/20 10:02:33;;;;;;;;;;;20.60;99.90;;;;;;5029971;28;19913;-59
2022/05/20 10:05:16;;;;;;;;;;;20.80;99.90;;;;;;5041020;28;20498;-58
2022/05/20 10:08:01;;;;;;;;;;;20.90;99.90;;;;;;5046052;28;19916;-58
2022/05/20 10:10:32;;;;;;;;;;;21.00;99.90;;;;;;5035785;28;19993;-59
2022/05/20 10:13:00;;;;;;;;;;;21.00;99.90;;;;;;5028652;28;20011;-58
2022/05/20 10:15:32;;;;;;;;;;;21.00;99.90;;;;;;5029034;28;19913;-58
2022/05/20 10:18:16;;;;;;;;;;;21.00;99.90;;;;;;5032166;28;19928;-58
2022/05/20 10:21:00;;;;;;;;;;;21.00;99.90;;;;;;5032714;28;20413;-58
2022/05/20 10:23:41;;;;;;;;;;;21.10;99.90;;;;;;5032650;28;19913;-58
2022/05/20 10:26:11;;;;;;;;;;;21.20;99.90;;;;;;5028726;28;19971;-58
2022/05/20 10:34:10;;;;;;;;;;;21.40;99.90;;;;;;5030137;28;20341;-58
2022/05/20 10:36:54;;;;;;;;;;;21.50;99.90;;;;;;5028085;28;19917;-59
2022/05/20 10:39:34;;;;;;;;;;;21.50;99.90;;;;;;5028552;28;19913;-59
2022/05/20 10:41:59;;;;;;;;;;;21.60;99.90;;;;;;5031241;28;19913;-59
2022/05/20 10:50:31;;;;;;;;;;;21.90;99.90;;;;;;5029147;28;19956;-59
2022/05/20 10:52:57;;;;;;;;;;;22.00;99.90;;;;;;5029021;28;20020;-59
2022/05/20 10:55:35;;;;;;;;;;;22.10;99.90;;;;;;5030679;28;20019;-58
2022/05/20 10:58:04;;;;;;;;;;;22.10;99.90;;;;;;5028018;28;19920;-58
2022/05/20 11:00:50;;;;;;;;;;;22.10;99.90;;;;;;5031753;28;19913;-58
2022/05/20 11:03:31;;;;;;;;;;;22.20;99.90;;;;;;5030735;28;19975;-58
2022/05/20 11:06:06;;;;;;;;;;;22.40;99.90;;;;;;5050208;28;20304;-59
2022/05/20 11:08:32;;;;;;;;;;;22.50;99.90;;;;;;5029939;28;20596;-59
2022/05/20 11:10:57;;;;;;;;;;;22.60;99.90;;;;;;5028406;28;19959;-59
2022/05/20 11:13:33;;;;;;;;;;;22.70;99.90;;;;;;5034458;28;19975;-59
2022/05/20 11:16:22;;;;;;;;;;;22.80;99.90;;;;;;5023737;28;19913;-58
2022/05/20 11:18:57;;;;;;;;;;;22.90;99.90;;;;;;5023942;28;19948;-58
2022/05/20 11:21:32;;;;;;;;;;;22.90;99.90;;;;;;5027066;28;19914;-59
2022/05/20 11:24:07;;;;;;;;;;;23.00;99.90;;;;;;5030801;28;19909;-58
2022/05/20 11:26:33;;;;;;;;;;;23.00;99.90;;;;;;5029861;28;19932;-59
2022/05/20 11:29:04;;;;;;;;;;;23.20;99.90;;;;;;5029855;28;20527;-58
2022/05/20 11:31:30;;;;;;;;;;;23.30;99.90;;;;;;5027142;28;20382;-59
2022/05/20 11:34:09;;;;;;;;;;;23.40;99.90;;;;;;5041091;28;20016;-60
2022/05/20 11:36:38;;;;;;;;;;;23.60;99.90;;;;;;5027217;28;20029;-59
2022/05/20 11:39:21;;;;;;;;;;;23.70;99.90;;;;;;5048614;28;19986;-58
2022/05/20 11:41:59;;;;;;;;;;;23.80;99.90;;;;;;5031680;28;19936;-59
2022/05/20 11:44:35;;;;;;;;;;;23.80;99.90;;;;;;5030308;28;19920;-59
2022/05/20 11:47:12;;;;;;;;;;;24.00;99.90;;;;;;5030331;28;20022;-58
2022/05/20 11:49:58;;;;;;;;;;;23.90;99.90;;;;;;5026623;28;19921;-58
2022/05/20 11:52:43;;;;;;;;;;;23.80;99.90;;;;;;5028193;28;20000;-59
2022/05/20 11:55:19;;;;;;;;;;;23.80;99.90;;;;;;5030818;28;19921;-57
2022/05/20 11:57:56;;;;;;;;;;;23.80;99.90;;;;;;5020965;28;19913;-58
2022/05/20 12:00:25;;;;;;;;;;;23.70;99.90;;;;;;5024986;28;20221;-59
2022/05/20 12:03:13;;;;;;;;;;;23.80;99.90;;;;;;5031388;28;19909;-59
2022/05/20 12:05:40;;;;;;;;;;;24.00;99.90;;;;;;5024253;28;19927;-58
2022/05/20 12:08:06;;;;;;;;;;;24.10;99.90;;;;;;5030553;28;19913;-58
2022/05/20 12:10:35;;;;;;;;;;;24.10;99.90;;;;;;5033060;28;19971;-59
2022/05/20 12:13:13;;;;;;;;;;;24.20;99.90;;;;;;5026188;28;19928;-58
2022/05/20 12:16:02;;;;;;;;;;;24.20;99.90;;;;;;5028125;28;19960;-59
2022/05/20 12:24:22;;;;;;;;;;;24.30;99.90;;;;;;5039407;28;19920;-58
2022/05/20 12:26:50;;;;;;;;;;;24.40;99.90;;;;;;5031422;28;19909;-58
2022/05/20 12:29:34;;;;;;;;;;;24.50;99.90;;;;;;5046661;28;19924;-58
2022/05/20 12:31:59;;;;;;;;;;;24.40;99.60;;;;;;5028714;28;19913;-59
2022/05/20 12:34:39;;;;;;;;;;;24.40;98.60;;;;;;5030979;28;19932;-59
2022/05/20 12:37:05;;;;;;;;;;;24.30;98.90;;;;;;5026346;28;19917;-58
2022/05/20 12:40:00;;;;;;;;;;;24.30;99.00;;;;;;5026564;28;19959;-58
2022/05/20 12:42:26;;;;;;;;;;;24.30;98.60;;;;;;5019700;28;20004;-59
2022/05/20 12:44:52;;;;;;;;;;;24.20;98.40;;;;;;5049703;28;19916;-58
2022/05/20 12:47:28;;;;;;;;;;;24.20;98.10;;;;;;5026543;28;19913;-59
2022/05/20 12:49:59;;;;;;;;;;;24.20;98.30;;;;;;5041430;28;20021;-58
2022/05/20 12:52:33;;;;;;;;;;;24.10;98.20;;;;;;5032790;28;19975;-58
2022/05/20 12:55:17;;;;;;;;;;;24.20;98.80;;;;;;5030290;28;19961;-57
2022/05/20 12:57:50;;;;;;;;;;;24.20;98.70;;;;;;5025680;28;20374;-58
2022/05/20 13:00:16;;;;;;;;;;;24.20;98.50;;;;;;5026997;28;19922;-60
2022/05/20 13:02:43;;;;;;;;;;;24.10;98.80;;;;;;5022507;28;19923;-59
2022/05/20 13:05:28;;;;;;;;;;;24.10;99.00;;;;;;5029861;28;20424;-59
2022/05/20 13:07:55;;;;;;;;;;;24.00;99.00;;;;;;5026143;28;19923;-60
2022/05/20 13:10:31;;;;;;;;;;;23.90;99.10;;;;;;5021919;28;19928;-61
2022/05/20 13:13:26;;;;;;;;;;;23.80;99.30;;;;;;5019545;28;19987;-61
2022/05/20 13:15:55;;;;;;;;;;;23.60;99.70;;;;;;5020961;28;19951;-59
2022/05/20 13:18:23;;;;;;;;;;;23.40;99.70;;;;;;5020658;28;19918;-60
2022/05/20 13:20:50;;;;;;;;;;;23.20;99.80;;;;;;5027111;28;19921;-63
2022/05/20 13:23:21;;;;;;;;;;;23.00;99.90;;;;;;5021798;28;20575;-65
2022/05/20 13:25:48;;;;;;;;;;;23.10;99.90;;;;;;5024709;28;19931;-62
2022/05/20 13:28:40;;;;;;;;;;;23.00;99.90;;;;;;5025556;28;19936;-65
2022/05/20 13:31:07;;;;;;;;;;;23.00;99.90;;;;;;5026894;28;19921;-63
2022/05/20 13:33:34;;;;;;;;;;;22.90;99.90;;;;;;5023102;28;20431;-60
2022/05/20 13:36:04;;;;;;;;;;;22.90;99.90;;;;;;5021420;28;20000;-62
2022/05/20 13:38:32;;;;;;;;;;;22.60;99.90;;;;;;5025956;28;19917;-71
2022/05/20 13:40:57;;;;;;;;;;;22.40;99.90;;;;;;5025871;28;19917;-71
2022/05/20 13:43:27;;;;;;;;;;;22.40;99.90;;;;;;5021927;28;19920;-68
2022/05/20 13:51:42;;;;;;;;;;;22.40;99.90;;;;;;5022122;28;19940;-65
2022/05/20 13:54:10;;;;;;;;;;;22.30;99.90;;;;;;5028369;28;20348;-67
2022/05/20 13:56:40;;;;;;;;;;;22.30;99.90;;;;;;5026624;28;19944;-66
2022/05/20 13:59:17;;;;;;;;;;;22.20;99.90;;;;;;5023815;28;20367;-66
2022/05/20 14:01:45;;;;;;;;;;;22.30;99.90;;;;;;5022629;28;19914;-70
2022/05/20 14:04:10;;;;;;;;;;;22.20;99.90;;;;;;5029532;28;19917;-63
2022/05/20 14:06:37;;;;;;;;;;;22.10;99.90;;;;;;5024136;28;20277;-60
2022/05/20 14:09:03;;;;;;;;;;;21.90;99.90;;;;;;5023746;28;19914;-64
2022/05/20 14:11:31;;;;;;;;;;;21.80;99.90;;;;;;5027235;28;20003;-62
2022/05/20 14:14:02;;;;;;;;;;;21.70;99.90;;;;;;5024139;28;19961;-61
2022/05/20 14:16:31;;;;;;;;;;;21.50;99.90;;;;;;5027189;28;20053;-62
2022/05/20 14:18:58;;;;;;;;;;;21.30;99.90;;;;;;5017440;28;19917;-65
2022/05/20 14:21:35;;;;;;;;;;;21.00;99.80;;;;;;5024966;28;19914;-63
2022/05/20 14:24:04;;;;;;;;;;;20.80;99.80;;;;;;5022998;28;19913;-61
2022/05/20 14:26:31;;;;;;;;;;;20.70;99.60;;;;;;5026621;28;19979;-62
2022/05/20 14:28:59;;;;;;;;;;;20.50;99.10;;;;;;5027616;28;19921;-64
2022/05/20 14:31:28;;;;;;;;;;;20.30;99.40;;;;;;5026228;28;19935;-65
2022/05/20 14:33:55;;;;;;;;;;;20.30;99.60;;;;;;5025958;28;19948;-62
2022/05/20 14:36:22;;;;;;;;;;;20.30;99.30;;;;;;5024431;28;19924;-62
2022/05/20 14:38:52;;;;;;;;;;;20.30;99.40;;;;;;5025927;28;19921;-58
2022/05/20 14:41:22;;;;;;;;;;;20.10;99.20;;;;;;5021344;28;19972;-61
2022/05/20 14:43:50;;;;;;;;;;;20.00;99.50;;;;;;5023822;28;19921;-60
2022/05/20 14:47:14;;;;;;;;;;;19.80;99.70;;;;;;5022315;28;19917;-62
2022/05/20 14:49:06;;;;;;;;;;;19.80;99.80;;;;;;5026560;28;19979;-61
2022/05/20 14:51:31;;;;;;;;;;;19.70;99.40;;;;;;5027126;28;19971;-64
2022/05/20 14:54:01;;;;;;;;;;;19.60;99.60;;;;;;5026065;28;20278;-65
2022/05/20 14:56:34;;;;;;;;;;;19.70;99.90;;;;;;5020890;28;19912;-64
2022/05/20 14:59:00;;;;;;;;;;;19.70;99.90;;;;;;5023831;28;20364;-64
2022/05/20 15:01:29;;;;;;;;;;;19.70;99.70;;;;;;5023669;28;19917;-61
2022/05/20 15:03:55;;;;;;;;;;;19.70;99.80;;;;;;5022166;28;19917;-65
2022/05/20 15:06:23;;;;;;;;;;;19.70;99.90;;;;;;5019355;28;19929;-64
2022/05/20 15:08:49;;;;;;;;;;;19.60;99.90;;;;;;5023034;28;19913;-62
2022/05/20 15:11:16;;;;;;;;;;;19.60;99.90;;;;;;5021683;28;19917;-67
2022/05/20 15:13:42;;;;;;;;;;;19.50;99.90;;;;;;5023207;28;19968;-62
2022/05/20 15:16:08;;;;;;;;;;;19.20;99.90;;;;;;5025366;28;19924;-62
2022/05/20 15:18:34;;;;;;;;;;;19.10;99.90;;;;;;5016905;28;19917;-63